createdAt,value
2019-02-06T00:03:23.834Z,64.30
2019-02-06T00:08:28.029Z,66.03
2019-02-06T00:13:32.343Z,67.73
2019-02-06T00:18:36.603Z,68.33
2019-02-06T00:23:40.722Z,65.33
2019-02-06T00:28:44.544Z,60.53
2019-02-06T00:33:48.778Z,59.27
2019-02-06T00:38:52.798Z,63.50
2019-02-06T00:43:56.525Z,57.73
2019-02-06T00:49:00.247Z,64.20
2019-02-06T00:54:05.136Z,58.37
2019-02-06T00:59:08.961Z,60.33
2019-02-06T01:04:12.657Z,61.10
2019-02-06T01:09:16.778Z,65.63
2019-02-06T01:14:20.495Z,66.53
2019-02-06T01:19:24.687Z,61.80
2019-02-06T01:24:28.523Z,59.53
2019-02-06T01:29:32.547Z,65.10
2019-02-06T01:34:36.930Z,63.63
2019-02-06T01:39:41.379Z,63.40
2019-02-06T01:44:45.561Z,63.67
2019-02-06T01:49:49.308Z,65.20
2019-02-06T01:54:53.083Z,63.63
2019-02-06T01:59:58.811Z,66.93
2019-02-06T02:05:02.511Z,60.43
2019-02-06T02:10:07.386Z,60.40
2019-02-06T02:15:12.325Z,59.40
2019-02-06T02:20:20.541Z,65.00
2019-02-06T02:25:24.268Z,63.57
2019-02-06T02:30:41.556Z,61.33
2019-02-06T02:35:45.296Z,60.53
2019-02-06T02:40:49.609Z,58.70
2019-02-06T02:45:53.476Z,64.27
2019-02-06T02:50:57.261Z,63.30
2019-02-06T02:56:00.972Z,64.83
2019-02-06T03:01:25.826Z,63.73
2019-02-06T03:06:30.030Z,65.40
2019-02-06T03:11:34.876Z,60.03
2019-02-06T03:16:38.700Z,65.57
2019-02-06T03:21:42.817Z,58.70
2019-02-06T03:26:46.607Z,61.97
2019-02-06T03:31:50.467Z,62.77
2019-02-06T03:36:54.326Z,63.50
2019-02-06T03:41:58.093Z,62.93
2019-02-06T03:47:02.041Z,66.00
2019-02-06T03:52:05.825Z,63.07
2019-02-06T03:57:09.820Z,62.37
2019-02-06T04:02:13.484Z,58.73
2019-02-06T04:07:17.597Z,62.20
2019-02-06T04:12:21.280Z,62.27
2019-02-06T04:17:25.519Z,56.13
2019-02-06T04:22:29.266Z,55.40
2019-02-06T04:27:32.974Z,58.80
2019-02-06T04:32:36.686Z,56.10
2019-02-06T04:37:40.378Z,76.23
2019-02-06T04:42:44.144Z,65.47
2019-02-06T04:47:48.271Z,56.10
2019-02-06T04:52:52.036Z,62.63
2019-02-06T04:57:55.777Z,56.50
2019-02-06T05:02:59.855Z,54.87
2019-02-06T05:08:03.717Z,53.47
2019-02-06T05:13:07.733Z,54.93
2019-02-06T05:18:11.562Z,57.50
2019-02-06T05:23:15.552Z,58.17
2019-02-06T05:28:19.246Z,61.40
2019-02-06T05:33:23.308Z,56.57
2019-02-06T05:38:27.552Z,60.93
2019-02-06T05:43:31.537Z,54.17
2019-02-06T05:48:35.487Z,51.43
2019-02-06T05:53:39.181Z,51.60
2019-02-06T05:58:43.248Z,48.63
2019-02-06T06:03:47.591Z,49.20
2019-02-06T06:08:51.256Z,44.83
2019-02-06T06:13:55.270Z,45.10
2019-02-06T06:18:59.018Z,45.03
2019-02-06T06:24:02.722Z,32.67
2019-02-06T06:29:06.497Z,39.33
2019-02-06T06:34:10.230Z,36.43
2019-02-06T06:39:13.909Z,36.47
2019-02-06T06:44:17.657Z,37.63
2019-02-06T06:49:21.471Z,40.30
2019-02-06T06:54:25.201Z,41.57
2019-02-06T06:59:28.879Z,34.40
2019-02-06T07:04:33.149Z,38.03
2019-02-06T07:09:36.831Z,40.63
2019-02-06T07:14:41.261Z,39.33
2019-02-06T07:19:45.031Z,35.83
2019-02-06T07:24:49.051Z,34.87
2019-02-06T07:29:52.725Z,36.43
2019-02-06T07:34:56.725Z,34.23
2019-02-06T07:40:00.540Z,36.50
2019-02-06T07:45:04.911Z,37.27
2019-02-06T07:50:12.505Z,36.73
2019-02-06T07:55:16.512Z,38.60
2019-02-06T08:00:20.595Z,33.17
2019-02-06T08:05:24.763Z,30.93
2019-02-06T08:10:31.355Z,28.40
2019-02-06T08:15:35.162Z,30.57
2019-02-06T08:20:39.081Z,34.93
2019-02-06T08:25:42.759Z,30.20
2019-02-06T08:30:46.777Z,30.27
2019-02-06T08:35:50.829Z,37.00
2019-02-06T08:40:54.506Z,38.90
2019-02-06T08:45:58.253Z,37.23
2019-02-06T08:51:02.065Z,38.03
2019-02-06T08:56:06.032Z,37.70
2019-02-06T09:01:10.140Z,40.50
2019-02-06T09:06:13.841Z,39.47
2019-02-06T09:11:17.564Z,40.93
2019-02-06T09:16:22.601Z,38.87
2019-02-06T09:21:27.032Z,37.77
2019-02-06T09:26:35.417Z,43.23
2019-02-06T09:31:36.905Z,37.07
2019-02-06T09:36:40.841Z,37.30
2019-02-06T09:41:44.617Z,38.20
2019-02-06T09:46:48.326Z,36.17
2019-02-06T09:51:52.312Z,41.00
2019-02-06T09:56:56.061Z,37.67
2019-02-06T10:01:59.740Z,37.00
2019-02-06T10:07:03.479Z,33.67
2019-02-06T10:12:07.179Z,26.50
2019-02-06T10:17:11.373Z,20.20
2019-02-06T10:22:15.055Z,19.73
2019-02-06T10:27:18.781Z,20.20
2019-02-06T10:32:22.536Z,19.50
2019-02-06T10:37:29.053Z,18.90
2019-02-06T10:42:31.741Z,22.07
2019-02-06T10:47:35.551Z,22.77
2019-02-06T10:52:39.653Z,20.43
2019-02-06T10:57:43.367Z,18.47
2019-02-06T11:02:47.198Z,17.17
2019-02-06T11:07:51.301Z,17.07
2019-02-06T11:12:55.117Z,15.63
2019-02-06T11:17:58.819Z,17.60
2019-02-06T11:23:02.512Z,14.83
2019-02-06T11:28:07.591Z,16.30
2019-02-06T11:33:11.400Z,17.77
2019-02-06T11:38:15.106Z,18.57
2019-02-06T11:43:18.890Z,20.13
2019-02-06T11:48:22.700Z,17.80
2019-02-06T11:53:27.236Z,18.80
2019-02-06T11:58:30.913Z,19.87
2019-02-06T12:03:34.681Z,20.20
2019-02-06T12:08:38.665Z,21.73
2019-02-06T12:13:42.855Z,19.17
2019-02-06T12:18:46.557Z,19.97
2019-02-06T12:23:50.257Z,15.13
2019-02-06T12:28:54.222Z,19.00
2019-02-06T12:33:57.986Z,18.77
2019-02-06T12:39:02.082Z,20.23
2019-02-06T12:44:05.920Z,22.17
2019-02-06T12:49:09.946Z,21.13
2019-02-06T12:54:13.667Z,20.60
2019-02-06T12:59:17.433Z,22.10
2019-02-06T13:04:21.200Z,21.40
2019-02-06T13:09:24.901Z,24.40
2019-02-06T13:14:28.653Z,21.37
2019-02-06T13:19:32.398Z,23.07
2019-02-06T13:24:36.287Z,23.80
2019-02-06T13:29:40.532Z,28.27
2019-02-06T13:34:44.231Z,25.17
2019-02-06T13:39:47.999Z,23.57
2019-02-06T13:44:51.738Z,29.30
2019-02-06T13:49:55.431Z,26.63
2019-02-06T13:54:59.540Z,28.87
2019-02-06T14:00:04.794Z,28.60
2019-02-06T14:05:08.989Z,23.53
2019-02-06T14:10:14.967Z,22.67
2019-02-06T14:15:21.277Z,31.63
2019-02-06T14:20:25.077Z,24.10
2019-02-06T14:25:35.333Z,27.43
2019-02-06T14:31:07.229Z,34.57
2019-02-06T14:37:04.508Z,24.87
2019-02-06T14:42:30.121Z,22.67
2019-02-06T14:47:53.359Z,19.63
2019-02-06T14:53:11.393Z,21.87
2019-02-06T14:59:05.269Z,19.10
2019-02-06T15:04:55.687Z,21.07
2019-02-06T15:10:46.030Z,18.47
2019-02-06T15:16:09.566Z,20.83
2019-02-06T15:21:53.747Z,16.93
2019-02-06T15:27:14.864Z,18.33
2019-02-06T15:33:13.973Z,15.43
2019-02-06T15:38:40.256Z,19.67
2019-02-06T15:44:13.902Z,18.10
2019-02-06T15:50:07.078Z,17.67
2019-02-06T15:55:36.337Z,19.47
2019-02-06T16:01:30.440Z,17.77
2019-02-06T16:06:56.599Z,22.40
2019-02-06T16:12:47.481Z,16.97
2019-02-06T16:18:08.461Z,20.20
2019-02-06T16:23:55.928Z,18.23
2019-02-06T16:29:30.917Z,18.30
2019-02-06T16:34:54.605Z,20.33
2019-02-06T16:40:36.327Z,20.03
2019-02-06T16:46:25.506Z,19.23
2019-02-06T16:52:06.193Z,15.63
2019-02-06T16:57:59.019Z,18.37
2019-02-06T17:03:27.603Z,16.03
2019-02-06T17:09:07.379Z,16.10
2019-02-06T17:14:42.986Z,18.40
2019-02-06T17:20:23.005Z,18.93
2019-02-06T17:25:37.502Z,20.63
2019-02-06T17:31:03.923Z,19.53
2019-02-06T17:36:51.249Z,19.07
2019-02-06T17:42:48.771Z,15.57
2019-02-06T17:48:27.948Z,16.33
2019-02-06T17:54:00.019Z,16.70
2019-02-06T17:59:04.939Z,18.53
2019-02-06T18:04:17.598Z,17.30
2019-02-06T18:09:21.752Z,15.87
2019-02-06T18:14:25.514Z,17.00
2019-02-06T18:25:21.643Z,17.43
2019-02-06T18:30:27.017Z,23.47
2019-02-06T18:35:31.144Z,21.97
2019-02-06T18:40:35.366Z,19.50
2019-02-06T18:45:39.135Z,19.10
2019-02-06T18:51:08.454Z,19.10
2019-02-06T18:56:15.750Z,18.17
2019-02-06T19:01:19.799Z,15.37
2019-02-06T19:06:24.822Z,19.87
2019-02-06T19:11:28.727Z,23.07
2019-02-06T19:16:32.672Z,18.57
2019-02-06T19:21:36.517Z,19.07
2019-02-06T19:26:40.227Z,21.07
2019-02-06T19:31:44.101Z,19.53
2019-02-06T19:36:48.252Z,19.83
2019-02-06T19:41:51.996Z,18.87
2019-02-06T19:46:55.819Z,21.40
2019-02-06T19:51:59.847Z,19.47
2019-02-06T19:57:03.768Z,19.00
2019-02-06T20:02:07.811Z,21.37
2019-02-06T20:07:11.495Z,19.63
2019-02-06T20:12:15.347Z,22.07
2019-02-06T20:17:19.764Z,20.67
2019-02-06T20:22:23.676Z,18.63
2019-02-06T20:27:27.779Z,20.43
2019-02-06T20:32:31.568Z,21.17
2019-02-06T20:37:35.282Z,19.13
2019-02-06T20:42:39.118Z,23.07
2019-02-06T20:47:42.957Z,20.23
2019-02-06T20:52:46.705Z,19.57
2019-02-06T20:57:50.770Z,19.43
2019-02-06T21:02:54.448Z,24.23
2019-02-06T21:07:58.137Z,25.40
2019-02-06T21:13:01.813Z,21.93
2019-02-06T21:18:06.149Z,21.43
2019-02-06T21:23:10.193Z,20.63
2019-02-06T21:28:14.669Z,25.90
2019-02-06T21:33:18.473Z,25.07
2019-02-06T21:38:22.249Z,24.00
2019-02-06T21:43:25.962Z,30.60
2019-02-06T21:48:29.707Z,25.53
2019-02-06T21:53:34.793Z,28.93
2019-02-06T21:58:38.776Z,26.63
2019-02-06T22:03:42.920Z,25.60
2019-02-06T22:08:46.692Z,28.37
2019-02-06T22:13:55.213Z,23.63
2019-02-06T22:18:56.322Z,25.63
2019-02-06T22:24:00.077Z,25.37
2019-02-06T22:29:03.926Z,26.17
2019-02-06T22:34:08.049Z,22.67
2019-02-06T22:39:12.243Z,25.60
2019-02-06T22:44:15.937Z,27.53
2019-02-06T22:49:19.790Z,26.23
2019-02-06T22:54:23.903Z,34.00
2019-02-06T22:59:28.009Z,30.63
2019-02-06T23:04:31.786Z,29.37
2019-02-06T23:09:36.209Z,29.70
2019-02-06T23:14:40.075Z,31.10
2019-02-06T23:19:43.916Z,27.47
2019-02-06T23:24:47.915Z,29.60
2019-02-06T23:29:51.962Z,30.57
2019-02-06T23:34:55.660Z,27.87
2019-02-06T23:39:59.585Z,29.27
2019-02-06T23:45:03.439Z,30.47
2019-02-06T23:50:07.367Z,28.30
2019-02-06T23:55:11.262Z,33.03
